Time;durP1;ratioP1;P1;durP2;ratioP2;P2;SDS_P1;SDS_P2;PMS_P1;PMS_P2;Temp;Humidity;BMP_temperature;BMP_pressure;BME280_temperature;BME280_humidity;BME280_pressure;Samples;Min_cycle;Max_cycle;Signal;HPM_P1;HPM_P2
2021/12/28 00:02:23;;;;;;;37.30;24.35;;;4.20;99.90;;;;;;4958471;28;20615;-49
2021/12/28 00:04:49;;;;;;;34.38;21.95;;;4.00;99.90;;;;;;4900804;29;20454;-50
2021/12/28 00:07:15;;;;;;;35.17;21.92;;;4.10;99.90;;;;;;4954354;29;20139;-50
2021/12/28 00:09:41;;;;;;;34.72;24.10;;;4.30;99.90;;;;;;4954292;28;20075;-49
2021/12/28 00:12:07;;;;;;;31.45;20.75;;;4.50;99.90;;;;;;4954331;29;20039;-49
2021/12/28 00:14:37;;;;;;;29.73;19.98;;;4.60;99.90;;;;;;4953318;28;20055;-49
2021/12/28 00:19:48;;;;;;;26.80;17.75;;;4.70;99.90;;;;;;4954060;29;20042;-51
2021/12/28 00:22:14;;;;;;;32.83;20.67;;;4.30;99.90;;;;;;4954159;29;20050;-50
2021/12/28 00:24:41;;;;;;;35.30;21.88;;;4.40;99.90;;;;;;4954063;29;20098;-50
2021/12/28 00:27:07;;;;;;;28.13;18.75;;;4.60;99.90;;;;;;4953908;29;20043;-50
2021/12/28 00:29:33;;;;;;;28.75;19.15;;;4.70;99.90;;;;;;4953961;29;20039;-49
2021/12/28 00:31:59;;;;;;;32.17;20.92;;;4.60;99.90;;;;;;4953852;29;20082;-49
2021/12/28 00:34:25;;;;;;;31.35;20.55;;;4.60;99.90;;;;;;4937544;29;20113;-50
2021/12/28 00:36:50;;;;;;;33.85;22.65;;;4.70;99.90;;;;;;4971665;28;20422;-49
2021/12/28 00:39:16;;;;;;;34.42;21.40;;;4.70;99.90;;;;;;4973212;28;20185;-50
2021/12/28 00:41:42;;;;;;;31.60;20.90;;;4.50;99.90;;;;;;4956856;28;20050;-50
2021/12/28 00:44:08;;;;;;;29.75;19.67;;;4.40;99.90;;;;;;4973020;28;20423;-50
2021/12/28 00:46:34;;;;;;;34.63;21.67;;;4.30;99.90;;;;;;4908262;28;20107;-49
2021/12/28 00:49:00;;;;;;;30.88;20.45;;;4.30;99.90;;;;;;4973303;28;20031;-50
2021/12/28 00:51:25;;;;;;;32.80;20.15;;;4.60;99.90;;;;;;4972830;28;20126;-49
2021/12/28 00:53:51;;;;;;;26.33;15.32;;;4.50;99.90;;;;;;4940665;28;20117;-50
2021/12/28 00:56:17;;;;;;;30.90;17.52;;;3.90;99.90;;;;;;4973413;28;20101;-50
2021/12/28 00:58:43;;;;;;;32.00;20.33;;;3.80;99.90;;;;;;4974967;28;20069;-49
2021/12/28 01:01:09;;;;;;;32.38;21.05;;;3.80;99.90;;;;;;4975089;28;20062;-51
2021/12/28 01:03:37;;;;;;;35.70;24.17;;;3.90;99.90;;;;;;4956884;28;20398;-50
2021/12/28 01:06:04;;;;;;;161.20;136.35;;;4.00;99.90;;;;;;4975064;28;20050;-50
2021/12/28 01:08:32;;;;;;;100.30;83.72;;;3.60;99.90;;;;;;4952844;29;20396;-50
2021/12/28 01:10:58;;;;;;;150.63;126.28;;;3.50;99.90;;;;;;4952896;29;20077;-50
2021/12/28 01:13:25;;;;;;;14.48;8.40;;;3.50;99.90;;;;;;4952903;29;20086;-50
2021/12/28 01:15:52;;;;;;;27.30;16.02;;;3.30;99.90;;;;;;4953265;29;20038;-49
2021/12/28 01:18:19;;;;;;;24.45;14.45;;;3.40;99.90;;;;;;4953379;29;20057;-50
2021/12/28 01:20:45;;;;;;;25.95;14.30;;;3.30;99.90;;;;;;4953524;29;20118;-50
2021/12/28 01:23:11;;;;;;;26.92;15.85;;;3.30;99.90;;;;;;4937093;29;20035;-50
2021/12/28 01:25:37;;;;;;;31.83;17.70;;;3.50;99.90;;;;;;4938180;29;20047;-49
2021/12/28 01:28:04;;;;;;;32.13;19.13;;;3.70;99.90;;;;;;4957252;29;20628;-50
2021/12/28 01:30:30;;;;;;;33.25;19.77;;;3.80;99.90;;;;;;4909459;29;20086;-50
2021/12/28 01:32:59;;;;;;;30.70;18.17;;;3.80;99.90;;;;;;4957022;29;20154;-49
2021/12/28 01:35:26;;;;;;;33.90;20.13;;;4.00;99.90;;;;;;4957301;29;20395;-50
2021/12/28 01:37:52;;;;;;;23.38;14.60;;;4.20;99.90;;;;;;4957112;29;20491;-49
2021/12/28 01:40:22;;;;;;;31.33;18.60;;;4.10;99.90;;;;;;4974763;28;20046;-49
2021/12/28 01:42:59;;;;;;;27.85;16.20;;;4.10;99.90;;;;;;4978616;28;20030;-50
2021/12/28 01:45:42;;;;;;;25.13;14.85;;;3.80;99.90;;;;;;4978625;28;20529;-50
2021/12/28 01:48:09;;;;;;;15.52;8.25;;;3.60;99.90;;;;;;4978398;28;20027;-50
2021/12/28 01:50:36;;;;;;;44.47;26.60;;;3.40;99.90;;;;;;4978360;28;20038;-50
2021/12/28 01:53:04;;;;;;;38.50;20.42;;;3.30;99.90;;;;;;4978136;28;20031;-49
2021/12/28 01:55:30;;;;;;;38.05;22.00;;;3.40;99.90;;;;;;4978139;28;20490;-49
2021/12/28 01:57:56;;;;;;;34.03;18.52;;;3.50;99.90;;;;;;4960051;28;20045;-49
2021/12/28 02:00:24;;;;;;;19.48;12.52;;;3.30;99.90;;;;;;4978194;28;20035;-49
2021/12/28 02:02:49;;;;;;;29.73;17.90;;;3.30;99.90;;;;;;4977501;28;20475;-50
2021/12/28 02:05:15;;;;;;;21.08;11.38;;;3.30;99.90;;;;;;4973680;28;20090;-51
2021/12/28 02:07:41;;;;;;;30.15;16.83;;;3.20;99.90;;;;;;4981496;28;20078;-51
2021/12/28 02:10:08;;;;;;;32.88;19.77;;;3.10;99.90;;;;;;4995396;28;20069;-50
2021/12/28 02:12:33;;;;;;;41.22;21.95;;;3.40;99.90;;;;;;4995462;28;20129;-50
2021/12/28 02:15:06;;;;;;;44.70;23.30;;;3.60;99.90;;;;;;4997215;28;20129;-49
2021/12/28 02:17:34;;;;;;;34.90;19.85;;;3.70;99.90;;;;;;4997344;28;20041;-49
2021/12/28 02:20:12;;;;;;;40.15;21.35;;;3.60;99.90;;;;;;4997265;28;20529;-50
2021/12/28 02:22:39;;;;;;;40.60;23.13;;;3.70;99.90;;;;;;4997338;28;20030;-51
2021/12/28 02:25:07;;;;;;;41.13;22.98;;;3.70;99.90;;;;;;4997109;28;20030;-50
2021/12/28 02:27:34;;;;;;;41.90;21.73;;;3.70;99.90;;;;;;4962634;28;20042;-50
2021/12/28 02:30:02;;;;;;;40.22;21.80;;;3.60;99.90;;;;;;4996987;28;20042;-50
2021/12/28 02:32:29;;;;;;;45.25;25.05;;;3.50;99.90;;;;;;4995593;28;20516;-50
2021/12/28 02:34:56;;;;;;;44.97;25.00;;;3.50;99.90;;;;;;4997038;28;20050;-49
2021/12/28 02:37:22;;;;;;;35.08;17.50;;;3.70;99.90;;;;;;4993966;28;20061;-49
2021/12/28 02:39:48;;;;;;;43.50;23.75;;;3.50;99.90;;;;;;4996727;28;20034;-49
2021/12/28 02:42:19;;;;;;;42.33;23.95;;;3.40;99.90;;;;;;4962025;28;20046;-51
2021/12/28 02:44:45;;;;;;;44.38;25.08;;;3.50;99.90;;;;;;4996551;28;20121;-49
2021/12/28 02:47:17;;;;;;;44.58;25.48;;;3.60;99.90;;;;;;4979614;28;20058;-50
2021/12/28 02:49:43;;;;;;;46.30;25.00;;;3.80;99.90;;;;;;4977321;28;20086;-50
2021/12/28 02:52:09;;;;;;;40.75;22.15;;;3.90;99.90;;;;;;4977035;28;20075;-49
2021/12/28 02:54:40;;;;;;;38.75;21.85;;;4.10;99.90;;;;;;4976988;28;20042;-49
2021/12/28 02:57:06;;;;;;;37.88;23.33;;;4.10;99.90;;;;;;4976943;28;20055;-50
2021/12/28 02:59:32;;;;;;;37.90;22.05;;;4.00;99.90;;;;;;4976943;28;20035;-51
2021/12/28 03:01:58;;;;;;;34.13;18.75;;;4.10;99.90;;;;;;4958758;28;20047;-49
2021/12/28 03:04:27;;;;;;;32.92;19.77;;;4.00;99.90;;;;;;4986840;28;20509;-50
2021/12/28 03:06:54;;;;;;;30.73;17.40;;;3.90;99.90;;;;;;4996110;28;20121;-49
2021/12/28 03:09:21;;;;;;;33.30;18.83;;;3.80;99.90;;;;;;4996062;28;20042;-50
2021/12/28 03:11:47;;;;;;;37.65;21.52;;;3.70;99.90;;;;;;4996367;28;20386;-51
2021/12/28 03:14:12;;;;;;;36.20;20.60;;;3.80;99.90;;;;;;4995719;28;20077;-50
2021/12/28 03:16:38;;;;;;;26.05;14.05;;;3.80;99.90;;;;;;4995980;28;20463;-49
2021/12/28 03:19:05;;;;;;;21.95;10.63;;;3.60;99.90;;;;;;4995513;28;20042;-49
2021/12/28 03:21:31;;;;;;;38.03;19.92;;;3.40;99.90;;;;;;4961554;28;20483;-50
2021/12/28 03:23:57;;;;;;;37.83;18.23;;;3.50;99.90;;;;;;4961364;28;20050;-51
2021/12/28 03:26:24;;;;;;;40.03;20.70;;;3.60;99.90;;;;;;4995805;28;20149;-49
2021/12/28 03:28:50;;;;;;;36.15;19.98;;;3.70;99.90;;;;;;4995499;28;20030;-50
2021/12/28 03:31:19;;;;;;;46.75;23.38;;;3.70;99.90;;;;;;4995547;28;20653;-50
2021/12/28 03:33:47;;;;;;;35.92;20.60;;;3.60;99.90;;;;;;4995653;28;20046;-49
2021/12/28 03:36:14;;;;;;;41.17;21.52;;;3.80;99.90;;;;;;4995450;28;20061;-50
2021/12/28 03:38:41;;;;;;;42.90;21.63;;;4.00;99.90;;;;;;4995506;28;20031;-50
2021/12/28 03:41:08;;;;;;;38.50;22.13;;;4.00;99.90;;;;;;4995601;28;20034;-50
2021/12/28 03:43:40;;;;;;;33.42;19.73;;;4.30;99.90;;;;;;4995181;28;20034;-50
2021/12/28 03:46:06;;;;;;;40.03;21.05;;;4.50;99.90;;;;;;4954176;29;20067;-49
2021/12/28 03:48:33;;;;;;;39.92;20.52;;;4.40;99.90;;;;;;4954287;28;20043;-49
2021/12/28 03:51:00;;;;;;;44.08;21.85;;;4.40;99.90;;;;;;4954236;29;20046;-51
2021/12/28 03:53:26;;;;;;;39.60;20.40;;;4.40;99.90;;;;;;4954294;29;20039;-50
2021/12/28 03:55:51;;;;;;;41.97;22.75;;;4.60;99.90;;;;;;4954225;29;20045;-50
2021/12/28 03:58:17;;;;;;;41.83;21.60;;;4.80;99.90;;;;;;4954039;29;20471;-51
2021/12/28 04:00:45;;;;;;;36.90;17.85;;;4.90;99.90;;;;;;4954093;29;20707;-49
2021/12/28 04:03:12;;;;;;;52.33;21.85;;;4.60;99.90;;;;;;4954239;29;20031;-50
2021/12/28 04:05:39;;;;;;;50.95;21.80;;;4.50;99.90;;;;;;4953874;29;20058;-49
2021/12/28 04:08:06;;;;;;;45.65;23.20;;;4.50;99.90;;;;;;4922072;29;20044;-50
2021/12/28 04:10:38;;;;;;;40.47;21.40;;;4.50;99.90;;;;;;4953918;29;20039;-50
2021/12/28 04:13:04;;;;;;;;;;;4.50;99.90;;;;;;4954310;29;20100;-51
2021/12/28 04:15:30;;;;;;;48.03;19.40;;;4.50;99.90;;;;;;4953923;29;20015;-50
2021/12/28 04:17:56;;;;;;;47.78;21.42;;;4.20;99.90;;;;;;4988913;28;20525;-49
2021/12/28 04:20:23;;;;;;;51.15;22.00;;;4.10;99.90;;;;;;4994664;28;20027;-49
2021/12/28 04:22:49;;;;;;;53.67;22.85;;;4.00;99.90;;;;;;4976489;28;20050;-50
2021/12/28 04:25:17;;;;;;;50.50;21.75;;;4.20;99.90;;;;;;4994523;28;20027;-50
2021/12/28 04:27:44;;;;;;;52.53;23.17;;;4.00;99.90;;;;;;4994418;28;20463;-50
2021/12/28 04:30:11;;;;;;;57.85;21.95;;;4.10;99.90;;;;;;4994568;28;20030;-49
2021/12/28 04:32:37;;;;;;;49.85;21.38;;;4.40;99.90;;;;;;4994484;28;20022;-50
2021/12/28 04:35:04;;;;;;;42.85;21.08;;;4.30;99.90;;;;;;4993750;28;20053;-49
2021/12/28 04:37:30;;;;;;;52.85;23.67;;;4.50;99.90;;;;;;4960211;28;20402;-50
2021/12/28 04:39:56;;;;;;;44.13;21.42;;;4.40;99.90;;;;;;4960202;28;20053;-50
2021/12/28 04:42:22;;;;;;;49.22;23.83;;;4.50;99.90;;;;;;4994156;28;20026;-49
2021/12/28 04:44:50;;;;;;;46.42;20.85;;;4.70;99.90;;;;;;4960133;28;20035;-49
2021/12/28 04:47:16;;;;;;;51.90;23.30;;;4.80;99.90;;;;;;4994217;28;20474;-49
2021/12/28 04:49:43;;;;;;;64.13;25.27;;;5.00;99.90;;;;;;4960351;28;20050;-50
2021/12/28 04:52:09;;;;;;;77.57;24.75;;;4.90;99.90;;;;;;4994104;28;20394;-49
2021/12/28 04:54:37;;;;;;;69.00;21.92;;;4.70;99.90;;;;;;4994210;28;20052;-50
2021/12/28 04:57:04;;;;;;;62.75;23.95;;;4.70;99.90;;;;;;4994300;28;20034;-49
2021/12/28 04:59:30;;;;;;;52.17;21.75;;;4.60;99.90;;;;;;4960207;28;20121;-50
2021/12/28 05:01:56;;;;;;;62.17;25.83;;;4.40;99.90;;;;;;5004984;28;20058;-50
2021/12/28 05:04:21;;;;;;;54.53;23.58;;;4.50;99.90;;;;;;4997114;28;20121;-50
2021/12/28 05:06:47;;;;;;;69.05;21.58;;;4.30;99.90;;;;;;4959666;28;20050;-50
2021/12/28 05:09:15;;;;;;;78.75;23.40;;;4.30;99.90;;;;;;4995264;28;20030;-50
2021/12/28 05:11:42;;;;;;;65.50;22.33;;;4.20;99.90;;;;;;5001848;28;20064;-50
2021/12/28 05:14:08;;;;;;;44.42;19.88;;;4.10;99.90;;;;;;5010898;28;20601;-50
2021/12/28 05:16:35;;;;;;;43.97;19.77;;;4.10;99.90;;;;;;4995423;28;20100;-50
2021/12/28 05:19:03;;;;;;;39.40;17.98;;;4.00;99.90;;;;;;5013563;28;20042;-48
2021/12/28 05:21:29;;;;;;;56.55;21.80;;;3.80;99.90;;;;;;5005769;28;20112;-51
2021/12/28 05:23:55;;;;;;;53.88;22.20;;;3.70;99.90;;;;;;5007151;28;20152;-51
2021/12/28 05:26:21;;;;;;;61.63;22.70;;;3.70;99.90;;;;;;5013690;28;20083;-51
2021/12/28 05:28:47;;;;;;;59.55;20.73;;;3.90;99.90;;;;;;5012486;28;20113;-51
2021/12/28 05:31:13;;;;;;;58.65;24.40;;;3.70;99.90;;;;;;4952625;28;20034;-50
2021/12/28 05:33:40;;;;;;;45.92;20.95;;;3.70;99.90;;;;;;5005267;28;20100;-50
2021/12/28 05:36:06;;;;;;;43.55;19.70;;;3.70;99.90;;;;;;5012596;28;20054;-50
2021/12/28 05:38:32;;;;;;;48.05;20.15;;;3.60;99.90;;;;;;4958395;28;20486;-50
2021/12/28 05:40:57;;;;;;;48.38;24.27;;;3.80;99.90;;;;;;4994120;28;20117;-51
2021/12/28 05:43:23;;;;;;;34.85;13.05;;;3.90;99.90;;;;;;4959825;28;20050;-51
2021/12/28 05:45:49;;;;;;;37.33;18.20;;;3.70;99.90;;;;;;5011000;28;20124;-50
2021/12/28 05:48:15;;;;;;;38.88;18.10;;;3.40;99.90;;;;;;4994751;28;20374;-51
2021/12/28 05:50:41;;;;;;;43.60;20.90;;;3.30;99.90;;;;;;4930173;28;20050;-52
2021/12/28 05:53:06;;;;;;;49.10;20.15;;;3.50;99.90;;;;;;4962126;28;20049;-51
2021/12/28 05:55:33;;;;;;;34.90;14.88;;;3.70;99.90;;;;;;5013258;28;20026;-51
2021/12/28 05:57:58;;;;;;;56.70;20.77;;;3.30;99.90;;;;;;5009452;28;20400;-51
2021/12/28 06:00:25;;;;;;;61.80;21.45;;;3.40;99.90;;;;;;5011078;28;20041;-50
2021/12/28 06:02:50;;;;;;;47.78;18.80;;;3.40;99.90;;;;;;5012944;28;20624;-50
2021/12/28 06:05:16;;;;;;;49.15;20.00;;;3.50;99.90;;;;;;5012780;28;20046;-50
2021/12/28 06:07:42;;;;;;;55.83;21.75;;;3.50;99.90;;;;;;5012486;28;20038;-51
2021/12/28 06:10:09;;;;;;;83.47;53.28;;;3.40;99.90;;;;;;4930194;28;20038;-51
2021/12/28 06:12:35;;;;;;;44.08;20.42;;;3.50;99.90;;;;;;4978873;28;20103;-51
2021/12/28 06:15:00;;;;;;;19.20;9.15;;;3.30;99.90;;;;;;5016985;28;20042;-51
2021/12/28 06:17:26;;;;;;;38.80;18.27;;;3.20;99.90;;;;;;4998267;28;20057;-50
2021/12/28 06:19:52;;;;;;;21.42;10.25;;;3.10;99.90;;;;;;5016518;28;20543;-52
2021/12/28 06:22:18;;;;;;;26.38;13.10;;;3.20;99.90;;;;;;5016606;28;20038;-47
2021/12/28 06:24:44;;;;;;;28.48;14.48;;;3.10;99.90;;;;;;5016776;28;20109;-48
2021/12/28 06:27:10;;;;;;;34.45;15.57;;;3.20;99.90;;;;;;5015954;28;20041;-49
2021/12/28 06:29:35;;;;;;;35.00;16.45;;;3.10;99.90;;;;;;5016470;28;20056;-49
2021/12/28 06:32:01;;;;;;;37.38;15.07;;;3.00;99.90;;;;;;5016309;28;20116;-49
2021/12/28 06:34:27;;;;;;;37.25;17.33;;;3.10;99.90;;;;;;5016158;28;20065;-49
2021/12/28 06:36:53;;;;;;;25.63;11.38;;;3.00;99.90;;;;;;4982097;28;20104;-49
2021/12/28 06:39:19;;;;;;;35.33;18.00;;;3.00;99.90;;;;;;4980392;28;20116;-49
2021/12/28 06:41:44;;;;;;;41.63;16.25;;;3.10;99.90;;;;;;5016322;28;20038;-50
2021/12/28 06:44:10;;;;;;;24.58;10.70;;;3.20;99.90;;;;;;4965553;28;20046;-49
2021/12/28 06:46:37;;;;;;;38.70;17.70;;;2.90;99.90;;;;;;4965504;28;20551;-50
2021/12/28 06:49:04;;;;;;;39.15;19.30;;;3.10;99.90;;;;;;5015798;28;20038;-49
2021/12/28 06:51:29;;;;;;;33.70;15.55;;;3.10;99.90;;;;;;5015853;28;20072;-49
2021/12/28 06:53:55;;;;;;;40.45;20.35;;;3.00;99.90;;;;;;4981141;28;20081;-49
2021/12/28 06:56:21;;;;;;;32.50;18.02;;;3.10;99.90;;;;;;4964559;28;20042;-51
2021/12/28 06:58:47;;;;;;;38.25;21.02;;;3.20;99.90;;;;;;5015742;28;20060;-50
2021/12/28 07:01:13;;;;;;;33.30;15.57;;;3.40;99.90;;;;;;5015799;28;20439;-50
2021/12/28 07:03:39;;;;;;;29.75;14.38;;;3.20;99.90;;;;;;5015830;28;20042;-49
2021/12/28 07:06:07;;;;;;;42.30;17.40;;;2.90;99.90;;;;;;4980925;28;20041;-50
2021/12/28 07:08:36;;;;;;;43.70;19.70;;;2.80;99.90;;;;;;5015523;28;20030;-50
2021/12/28 07:11:01;;;;;;;31.95;14.57;;;2.90;99.90;;;;;;5015757;28;20029;-50
2021/12/28 07:13:27;;;;;;;46.42;20.95;;;2.70;99.90;;;;;;4981071;28;20397;-50
2021/12/28 07:15:53;;;;;;;43.65;18.98;;;2.90;99.90;;;;;;5016148;28;20034;-49
2021/12/28 07:18:19;;;;;;;47.63;23.58;;;3.00;99.90;;;;;;4964686;28;20049;-50
2021/12/28 07:20:48;;;;;;;57.65;23.63;;;3.40;99.90;;;;;;4965068;28;20125;-49
2021/12/28 07:23:14;;;;;;;63.92;25.92;;;3.70;99.90;;;;;;5015095;28;20084;-49
2021/12/28 07:25:40;;;;;;;55.00;21.90;;;3.80;99.90;;;;;;5015708;28;20088;-50
2021/12/28 07:28:06;;;;;;;34.63;16.33;;;3.50;99.90;;;;;;4932457;28;20037;-50
2021/12/28 07:30:32;;;;;;;49.03;21.40;;;3.30;99.90;;;;;;5015436;28;20034;-51
2021/12/28 07:32:57;;;;;;;66.70;22.38;;;3.30;99.90;;;;;;4954668;29;20050;-50
2021/12/28 07:35:23;;;;;;;47.42;21.45;;;3.30;99.90;;;;;;4954866;29;20404;-49
2021/12/28 07:37:49;;;;;;;28.80;11.23;;;3.50;99.90;;;;;;4954789;29;20521;-50
2021/12/28 07:40:15;;;;;;;48.30;17.35;;;3.10;99.90;;;;;;4922780;29;20055;-50
2021/12/28 07:42:41;;;;;;;63.50;21.17;;;2.90;99.90;;;;;;4954767;29;20069;-50
2021/12/28 07:45:10;;;;;;;46.97;20.98;;;3.00;99.90;;;;;;4954599;29;20035;-50
2021/12/28 07:47:36;;;;;;;52.90;20.08;;;3.10;99.90;;;;;;4954354;29;20031;-50
2021/12/28 07:50:03;;;;;;;52.20;17.90;;;3.10;99.90;;;;;;4954504;29;20506;-50
2021/12/28 07:52:29;;;;;;;49.30;22.30;;;3.10;99.90;;;;;;4922514;29;20130;-50
2021/12/28 07:54:55;;;;;;;68.80;32.47;;;3.20;99.90;;;;;;4906534;29;20087;-49
2021/12/28 07:57:21;;;;;;;51.70;27.15;;;3.50;99.90;;;;;;4954345;29;20465;-50
2021/12/28 07:59:46;;;;;;;97.05;43.65;;;3.60;99.90;;;;;;4949700;29;20031;-50
2021/12/28 08:02:12;;;;;;;181.45;112.88;;;3.80;99.90;;;;;;4902441;29;20043;-49
2021/12/28 08:04:38;;;;;;;78.15;44.63;;;3.80;99.90;;;;;;4948062;29;20051;-50
2021/12/28 08:07:04;;;;;;;64.10;21.25;;;4.10;99.90;;;;;;4921054;29;20043;-50
2021/12/28 08:09:29;;;;;;;49.22;20.55;;;4.00;99.90;;;;;;4943695;28;20496;-50
2021/12/28 08:11:55;;;;;;;52.25;20.52;;;3.90;99.90;;;;;;5011526;28;20413;-50
2021/12/28 08:14:21;;;;;;;53.22;20.95;;;3.60;99.90;;;;;;5011318;28;20042;-51
2021/12/28 08:16:48;;;;;;;49.63;22.17;;;3.60;99.90;;;;;;5013839;28;20508;-50
2021/12/28 08:19:14;;;;;;;43.78;20.92;;;3.60;99.90;;;;;;5012253;28;20065;-50
2021/12/28 08:21:39;;;;;;;52.63;22.50;;;3.60;99.90;;;;;;5012027;28;20477;-50
2021/12/28 08:24:06;;;;;;;55.45;24.35;;;3.30;99.90;;;;;;5009679;28;20049;-50
2021/12/28 08:26:32;;;;;;;47.60;20.10;;;3.50;99.90;;;;;;5012374;28;20030;-50
2021/12/28 08:28:57;;;;;;;46.67;19.88;;;3.40;99.90;;;;;;5012336;28;20026;-50
2021/12/28 08:31:23;;;;;;;58.85;22.35;;;3.40;99.90;;;;;;5009919;28;21355;-50
2021/12/28 08:33:49;;;;;;;63.17;25.05;;;3.30;99.90;;;;;;4974576;28;20066;-50
2021/12/28 08:36:15;;;;;;;64.30;25.10;;;3.30;99.90;;;;;;5010840;28;20112;-50
2021/12/28 08:38:43;;;;;;;55.95;24.80;;;3.40;99.90;;;;;;5010858;28;20029;-50
2021/12/28 08:41:09;;;;;;;48.75;21.90;;;3.60;99.90;;;;;;5010336;28;20060;-50
2021/12/28 08:43:35;;;;;;;54.45;22.92;;;3.70;99.90;;;;;;5010505;28;20056;-50
2021/12/28 08:46:01;;;;;;;75.22;30.55;;;3.70;99.90;;;;;;5012327;28;20037;-50
2021/12/28 08:48:27;;;;;;;57.47;24.77;;;3.60;99.90;;;;;;5013854;28;20113;-50
2021/12/28 08:50:52;;;;;;;71.43;22.45;;;3.70;99.90;;;;;;5013786;28;20061;-50
2021/12/28 08:53:18;;;;;;;66.10;23.52;;;3.60;99.90;;;;;;5018700;28;20025;-50
2021/12/28 08:55:44;;;;;;;32.33;13.70;;;3.40;99.90;;;;;;5033416;28;20060;-50
2021/12/28 08:58:10;;;;;;;78.50;27.92;;;3.20;99.90;;;;;;4982491;28;20045;-50
2021/12/28 09:00:37;;;;;;;35.03;15.75;;;3.40;99.90;;;;;;4982496;28;20105;-50
2021/12/28 09:03:04;;;;;;;48.90;20.35;;;3.20;99.90;;;;;;5020208;28;20136;-50
2021/12/28 09:05:31;;;;;;;43.22;22.63;;;3.30;99.90;;;;;;4927668;28;20042;-50
2021/12/28 09:07:58;;;;;;;52.05;19.17;;;3.70;99.90;;;;;;4943881;28;20056;-50
2021/12/28 09:10:25;;;;;;;41.88;19.52;;;3.70;99.90;;;;;;4994014;28;20073;-50
2021/12/28 09:12:52;;;;;;;31.17;13.65;;;3.60;99.90;;;;;;4994009;28;20030;-50
2021/12/28 09:15:18;;;;;;;42.47;17.65;;;3.50;99.90;;;;;;4993140;28;20084;-50
2021/12/28 09:17:44;;;;;;;47.20;20.05;;;3.20;99.90;;;;;;4993645;28;20478;-50
2021/12/28 09:20:14;;;;;;;53.47;21.52;;;3.30;99.90;;;;;;4994066;28;20433;-49
2021/12/28 09:22:40;;;;;;;44.88;20.80;;;3.50;99.90;;;;;;4993737;28;20038;-50
2021/12/28 09:25:06;;;;;;;26.50;13.60;;;3.50;99.90;;;;;;4943646;28;20039;-50
2021/12/28 09:27:32;;;;;;;37.08;18.67;;;3.50;99.90;;;;;;4943356;28;20121;-50
2021/12/28 09:29:58;;;;;;;26.10;13.50;;;3.70;99.90;;;;;;4991813;28;20177;-50
2021/12/28 09:32:23;;;;;;;18.17;10.45;;;3.40;99.90;;;;;;4974773;28;20456;-50
2021/12/28 09:34:52;;;;;;;37.65;17.58;;;3.10;99.90;;;;;;5000525;28;20042;-50
2021/12/28 09:37:21;;;;;;;48.25;22.63;;;3.10;99.90;;;;;;5012750;28;20045;-50
2021/12/28 09:39:48;;;;;;;51.80;22.35;;;3.40;99.90;;;;;;5013341;28;20038;-51
2021/12/28 09:42:15;;;;;;;29.80;14.65;;;3.40;99.90;;;;;;4995091;28;20045;-50
2021/12/28 09:44:41;;;;;;;36.25;17.30;;;3.50;99.90;;;;;;5013257;28;20037;-50
2021/12/28 09:47:08;;;;;;;53.58;25.85;;;3.60;99.90;;;;;;5014885;28;20113;-50
2021/12/28 09:49:35;;;;;;;31.92;16.48;;;3.90;99.90;;;;;;5017286;28;20030;-50
2021/12/28 09:52:04;;;;;;;42.50;22.92;;;3.70;99.90;;;;;;5016910;28;20048;-50
2021/12/28 09:54:30;;;;;;;36.90;19.48;;;3.80;99.90;;;;;;4966530;28;20058;-50
2021/12/28 09:56:59;;;;;;;46.25;24.05;;;3.70;99.90;;;;;;5017437;28;20116;-50
2021/12/28 09:59:29;;;;;;;46.25;19.17;;;3.80;99.90;;;;;;5017026;28;20118;-50
2021/12/28 10:01:55;;;;;;;50.60;23.15;;;3.70;99.90;;;;;;5016976;28;20047;-50
2021/12/28 10:04:20;;;;;;;53.92;28.90;;;3.90;99.90;;;;;;5026771;28;20493;-50
2021/12/28 10:06:47;;;;;;;48.60;25.55;;;4.40;99.90;;;;;;5035689;28;20047;-50
2021/12/28 10:09:19;;;;;;;51.78;26.02;;;4.90;99.90;;;;;;5036530;28;20029;-50
2021/12/28 10:11:48;;;;;;;49.92;25.80;;;5.10;99.90;;;;;;5035879;28;20026;-50
2021/12/28 10:14:26;;;;;;;39.40;22.17;;;4.90;99.90;;;;;;5036456;28;20053;-50
2021/12/28 10:16:56;;;;;;;43.45;22.73;;;5.00;99.90;;;;;;5033180;28;20037;-51
2021/12/28 10:19:32;;;;;;;46.38;23.05;;;5.30;99.90;;;;;;5036340;28;20037;-50
2021/12/28 10:22:29;;;;;;;48.00;24.85;;;5.20;99.90;;;;;;5036239;28;20033;-50
2021/12/28 10:25:00;;;;;;;47.05;24.35;;;5.30;99.90;;;;;;5016979;28;20084;-50
2021/12/28 10:27:29;;;;;;;45.67;24.38;;;5.50;99.90;;;;;;5036184;28;20026;-50
2021/12/28 10:30:21;;;;;;;48.08;27.83;;;5.80;99.90;;;;;;4985057;28;20045;-50
2021/12/28 10:32:51;;;;;;;56.10;28.90;;;5.80;99.90;;;;;;5021725;28;20075;-50
2021/12/28 10:35:26;;;;;;;46.40;25.15;;;5.50;99.90;;;;;;5036093;28;20046;-50
2021/12/28 10:37:55;;;;;;;45.17;23.80;;;5.20;99.90;;;;;;5035927;28;20030;-51
2021/12/28 10:40:30;;;;;;;44.67;24.70;;;5.10;99.90;;;;;;5036075;28;20094;-50
2021/12/28 10:43:02;;;;;;;45.22;23.70;;;5.20;99.90;;;;;;5035886;28;20559;-50
2021/12/28 10:45:36;;;;;;;45.08;25.90;;;5.40;99.90;;;;;;5035940;28;20037;-50
2021/12/28 10:48:09;;;;;;;37.90;20.20;;;5.30;99.90;;;;;;5035999;28;20041;-50
2021/12/28 10:50:43;;;;;;;45.85;23.73;;;5.60;99.90;;;;;;5035808;28;20342;-51
2021/12/28 10:53:17;;;;;;;38.92;22.70;;;5.80;99.90;;;;;;5035340;28;20478;-50
2021/12/28 10:55:47;;;;;;;41.22;22.83;;;5.90;99.90;;;;;;5035578;28;20116;-50
2021/12/28 10:58:40;;;;;;;44.75;24.38;;;6.00;99.90;;;;;;4983326;28;20044;-50
2021/12/28 11:01:17;;;;;;;40.50;20.70;;;5.90;99.90;;;;;;5032884;28;20160;-50
2021/12/28 11:03:54;;;;;;;45.78;21.08;;;5.80;99.90;;;;;;5033876;28;20064;-49
2021/12/28 11:06:23;;;;;;;45.95;23.35;;;5.30;99.90;;;;;;5025419;28;20026;-53
2021/12/28 11:08:56;;;;;;;40.05;20.40;;;5.60;99.90;;;;;;5006430;28;20501;-51
2021/12/28 11:11:24;;;;;;;39.05;21.75;;;5.20;99.90;;;;;;5003979;28;20039;-52
2021/12/28 11:13:58;;;;;;;45.72;26.30;;;4.90;99.90;;;;;;5015260;28;20037;-49
2021/12/28 11:16:28;;;;;;;32.38;18.13;;;4.80;99.90;;;;;;4957207;28;20097;-50
2021/12/28 11:18:57;;;;;;;43.70;25.17;;;4.60;99.90;;;;;;4935449;29;20047;-50
2021/12/28 11:21:27;;;;;;;44.63;25.58;;;4.90;99.90;;;;;;4935774;29;20118;-50
2021/12/28 11:24:00;;;;;;;43.47;24.88;;;5.20;99.90;;;;;;4932913;29;20227;-50
2021/12/28 11:26:30;;;;;;;41.35;23.77;;;5.60;99.90;;;;;;4935251;29;20388;-50
2021/12/28 11:29:09;;;;;;;43.63;26.13;;;5.80;99.90;;;;;;4935605;29;20131;-49
2021/12/28 11:31:38;;;;;;;53.13;32.08;;;5.50;99.90;;;;;;4935355;29;20146;-50
2021/12/28 11:34:24;;;;;;;47.15;27.58;;;5.70;99.90;;;;;;4903466;29;20524;-50
2021/12/28 11:36:55;;;;;;;44.22;23.40;;;6.00;99.90;;;;;;4934840;29;20055;-50
2021/12/28 11:39:25;;;;;;;53.88;32.13;;;5.60;99.90;;;;;;4935265;29;20506;-50
2021/12/28 11:41:52;;;;;;;51.97;29.10;;;6.00;99.90;;;;;;4935322;29;20167;-49
2021/12/28 11:44:19;;;;;;;47.63;29.17;;;5.40;99.90;;;;;;4935153;29;20040;-50
2021/12/28 11:46:47;;;;;;;60.92;35.92;;;5.70;99.90;;;;;;4939845;29;20047;-50
2021/12/28 11:49:15;;;;;;;54.47;32.97;;;6.00;99.90;;;;;;4966478;28;20129;-50
2021/12/28 11:51:42;;;;;;;50.10;28.25;;;6.30;99.90;;;;;;5014474;28;20038;-50
2021/12/28 11:54:11;;;;;;;47.22;27.55;;;6.40;99.90;;;;;;5014758;28;20034;-50
2021/12/28 11:56:41;;;;;;;43.75;28.08;;;6.30;99.90;;;;;;5014580;28;20040;-49
2021/12/28 11:59:10;;;;;;;48.58;26.60;;;6.30;99.90;;;;;;4964014;28;20054;-50
2021/12/28 12:01:36;;;;;;;49.10;26.20;;;6.60;99.90;;;;;;4964116;28;20030;-50
2021/12/28 12:04:02;;;;;;;48.65;26.35;;;6.40;99.90;;;;;;5014507;28;20497;-50
2021/12/28 12:07:05;;;;;;;44.35;25.02;;;6.50;99.90;;;;;;5014540;28;20034;-51
2021/12/28 12:09:55;;;;;;;48.28;25.92;;;6.40;99.90;;;;;;5014233;28;20044;-50
2021/12/28 12:12:30;;;;;;;52.15;29.08;;;6.10;99.90;;;;;;5014286;28;20058;-51
2021/12/28 12:14:58;;;;;;;52.75;29.75;;;6.20;99.90;;;;;;5014393;28;20046;-50
2021/12/28 12:17:39;;;;;;;50.85;29.27;;;6.40;99.90;;;;;;4996470;28;20037;-50
2021/12/28 12:20:23;;;;;;;51.63;29.30;;;6.70;99.90;;;;;;5014408;28;20034;-50
2021/12/28 12:22:50;;;;;;;55.28;29.73;;;6.40;99.90;;;;;;5014414;28;20038;-50
2021/12/28 12:25:19;;;;;;;60.22;31.90;;;6.30;99.90;;;;;;5014424;28;20030;-50
2021/12/28 12:27:45;;;;;;;58.15;31.23;;;6.20;99.90;;;;;;4963505;28;20164;-50
2021/12/28 12:30:20;;;;;;;56.58;30.33;;;6.40;99.90;;;;;;5014284;28;20517;-50
2021/12/28 12:33:08;;;;;;;66.70;35.33;;;6.60;99.90;;;;;;5014457;28;20034;-50
2021/12/28 12:35:55;;;;;;;53.95;30.00;;;6.60;99.90;;;;;;5014184;28;20049;-50
2021/12/28 12:38:32;;;;;;;53.15;28.13;;;6.50;99.90;;;;;;5014107;28;20041;-49
2021/12/28 12:41:12;;;;;;;75.50;40.20;;;6.70;99.90;;;;;;5014383;28;20057;-49
2021/12/28 12:43:38;;;;;;;64.90;35.22;;;6.60;99.90;;;;;;4979327;28;20394;-49
2021/12/28 12:46:16;;;;;;;59.08;34.03;;;6.90;99.90;;;;;;4979563;28;20046;-50